sensor_id;sensor_type;location;lat;lon;timestamp;temperature;humidity
18365;DHT22;9309;52.126;11.616;2022-12-29T00:01:22;7.80;86.00
18365;DHT22;9309;52.126;11.616;2022-12-29T00:03:49;7.80;86.20
18365;DHT22;9309;52.126;11.616;2022-12-29T00:06:16;7.80;86.10
18365;DHT22;9309;52.126;11.616;2022-12-29T00:08:43;7.80;85.90
18365;DHT22;9309;52.126;11.616;2022-12-29T00:11:11;7.80;86.10
18365;DHT22;9309;52.126;11.616;2022-12-29T00:13:40;7.80;86.00
18365;DHT22;9309;52.126;11.616;2022-12-29T00:16:24;7.80;86.10
18365;DHT22;9309;52.126;11.616;2022-12-29T00:18:51;7.80;86.00
18365;DHT22;9309;52.126;11.616;2022-12-29T00:21:20;7.80;85.70
18365;DHT22;9309;52.126;11.616;2022-12-29T00:24:05;7.90;85.50
18365;DHT22;9309;52.126;11.616;2022-12-29T00:26:55;7.80;85.70
18365;DHT22;9309;52.126;11.616;2022-12-29T00:29:42;7.80;85.90
18365;DHT22;9309;52.126;11.616;2022-12-29T00:32:26;7.80;85.60
18365;DHT22;9309;52.126;11.616;2022-12-29T00:35:12;7.80;85.50
18365;DHT22;9309;52.126;11.616;2022-12-29T00:37:43;7.80;85.60
18365;DHT22;9309;52.126;11.616;2022-12-29T00:40:27;7.80;85.50
18365;DHT22;9309;52.126;11.616;2022-12-29T00:43:11;7.80;85.60
18365;DHT22;9309;52.126;11.616;2022-12-29T00:45:57;7.80;85.60
18365;DHT22;9309;52.126;11.616;2022-12-29T00:48:24;7.80;85.20
18365;DHT22;9309;52.126;11.616;2022-12-29T00:51:04;7.90;85.10
18365;DHT22;9309;52.126;11.616;2022-12-29T00:53:31;7.90;84.90
18365;DHT22;9309;52.126;11.616;2022-12-29T00:55:58;7.90;84.70
18365;DHT22;9309;52.126;11.616;2022-12-29T00:58:27;7.90;84.40
18365;DHT22;9309;52.126;11.616;2022-12-29T01:01:01;7.90;84.50
18365;DHT22;9309;52.126;11.616;2022-12-29T01:03:28;7.90;84.70
18365;DHT22;9309;52.126;11.616;2022-12-29T01:05:55;7.90;85.00
18365;DHT22;9309;52.126;11.616;2022-12-29T01:08:21;7.90;85.00
18365;DHT22;9309;52.126;11.616;2022-12-29T01:10:57;8.00;84.40
18365;DHT22;9309;52.126;11.616;2022-12-29T01:13:23;8.00;84.50
18365;DHT22;9309;52.126;11.616;2022-12-29T01:15:50;8.00;84.50
18365;DHT22;9309;52.126;11.616;2022-12-29T01:18:19;8.10;84.50
18365;DHT22;9309;52.126;11.616;2022-12-29T01:20:45;8.10;84.30
18365;DHT22;9309;52.126;11.616;2022-12-29T01:23:12;8.20;84.00
18365;DHT22;9309;52.126;11.616;2022-12-29T01:25:39;8.30;83.90
18365;DHT22;9309;52.126;11.616;2022-12-29T01:28:06;8.40;83.30
18365;DHT22;9309;52.126;11.616;2022-12-29T01:30:33;8.50;82.80
18365;DHT22;9309;52.126;11.616;2022-12-29T01:33:00;8.40;82.90
18365;DHT22;9309;52.126;11.616;2022-12-29T01:35:28;8.50;82.80
18365;DHT22;9309;52.126;11.616;2022-12-29T01:37:57;8.50;82.50
18365;DHT22;9309;52.126;11.616;2022-12-29T01:40:24;8.50;82.60
18365;DHT22;9309;52.126;11.616;2022-12-29T01:42:51;8.60;82.30
18365;DHT22;9309;52.126;11.616;2022-12-29T01:45:18;8.60;81.90
18365;DHT22;9309;52.126;11.616;2022-12-29T01:47:47;8.70;82.00
18365;DHT22;9309;52.126;11.616;2022-12-29T01:50:17;8.70;82.00
18365;DHT22;9309;52.126;11.616;2022-12-29T01:52:51;8.60;82.00
18365;DHT22;9309;52.126;11.616;2022-12-29T01:55:20;8.70;81.80
18365;DHT22;9309;52.126;11.616;2022-12-29T01:57:50;8.70;81.80
18365;DHT22;9309;52.126;11.616;2022-12-29T02:00:18;8.70;82.10
18365;DHT22;9309;52.126;11.616;2022-12-29T02:02:50;8.70;82.10
18365;DHT22;9309;52.126;11.616;2022-12-29T02:05:23;8.60;82.30
18365;DHT22;9309;52.126;11.616;2022-12-29T02:07:53;8.70;82.20
18365;DHT22;9309;52.126;11.616;2022-12-29T02:10:21;8.60;82.50
18365;DHT22;9309;52.126;11.616;2022-12-29T02:12:49;8.60;82.60
18365;DHT22;9309;52.126;11.616;2022-12-29T02:19:26;8.60;82.90
18365;DHT22;9309;52.126;11.616;2022-12-29T02:22:12;8.60;82.90
18365;DHT22;9309;52.126;11.616;2022-12-29T02:25:26;8.60;83.10
18365;DHT22;9309;52.126;11.616;2022-12-29T02:28:21;8.50;83.40
18365;DHT22;9309;52.126;11.616;2022-12-29T02:31:02;8.50;83.60
18365;DHT22;9309;52.126;11.616;2022-12-29T02:33:42;8.60;83.40
18365;DHT22;9309;52.126;11.616;2022-12-29T02:36:15;8.50;83.50
18365;DHT22;9309;52.126;11.616;2022-12-29T02:38:52;8.50;83.40
18365;DHT22;9309;52.126;11.616;2022-12-29T02:41:30;8.50;83.60
18365;DHT22;9309;52.126;11.616;2022-12-29T02:44:03;8.40;83.80
18365;DHT22;9309;52.126;11.616;2022-12-29T02:46:34;8.30;84.40
18365;DHT22;9309;52.126;11.616;2022-12-29T02:49:07;8.40;84.10
18365;DHT22;9309;52.126;11.616;2022-12-29T02:51:41;8.40;84.50
18365;DHT22;9309;52.126;11.616;2022-12-29T02:54:09;8.40;84.80
18365;DHT22;9309;52.126;11.616;2022-12-29T02:56:54;8.50;84.70
18365;DHT22;9309;52.126;11.616;2022-12-29T02:59:21;8.60;84.40
18365;DHT22;9309;52.126;11.616;2022-12-29T03:02:03;8.60;84.30
18365;DHT22;9309;52.126;11.616;2022-12-29T03:05:07;8.60;84.30
18365;DHT22;9309;52.126;11.616;2022-12-29T03:07:44;8.70;84.20
18365;DHT22;9309;52.126;11.616;2022-12-29T03:10:23;8.80;84.20
18365;DHT22;9309;52.126;11.616;2022-12-29T03:12:56;8.80;84.00
18365;DHT22;9309;52.126;11.616;2022-12-29T03:15:52;8.90;83.80
18365;DHT22;9309;52.126;11.616;2022-12-29T03:18:34;8.90;83.80
18365;DHT22;9309;52.126;11.616;2022-12-29T03:21:05;8.90;83.50
18365;DHT22;9309;52.126;11.616;2022-12-29T03:23:34;8.90;83.50
18365;DHT22;9309;52.126;11.616;2022-12-29T03:26:08;8.90;83.40
18365;DHT22;9309;52.126;11.616;2022-12-29T03:28:37;8.90;83.40
18365;DHT22;9309;52.126;11.616;2022-12-29T03:31:07;8.90;83.30
18365;DHT22;9309;52.126;11.616;2022-12-29T03:33:38;8.90;83.40
18365;DHT22;9309;52.126;11.616;2022-12-29T03:36:11;8.90;83.50
18365;DHT22;9309;52.126;11.616;2022-12-29T03:38:42;8.90;83.40
18365;DHT22;9309;52.126;11.616;2022-12-29T03:41:12;8.90;83.40
18365;DHT22;9309;52.126;11.616;2022-12-29T03:43:40;9.00;83.10
18365;DHT22;9309;52.126;11.616;2022-12-29T03:46:07;9.00;83.00
18365;DHT22;9309;52.126;11.616;2022-12-29T03:48:35;9.00;83.00
18365;DHT22;9309;52.126;11.616;2022-12-29T03:51:03;9.00;83.20
18365;DHT22;9309;52.126;11.616;2022-12-29T03:53:29;8.90;83.30
18365;DHT22;9309;52.126;11.616;2022-12-29T03:55:57;8.90;83.20
18365;DHT22;9309;52.126;11.616;2022-12-29T03:58:24;9.00;83.00
18365;DHT22;9309;52.126;11.616;2022-12-29T04:01:03;9.00;82.90
18365;DHT22;9309;52.126;11.616;2022-12-29T04:03:32;9.00;82.90
18365;DHT22;9309;52.126;11.616;2022-12-29T04:06:00;8.90;83.00
18365;DHT22;9309;52.126;11.616;2022-12-29T04:08:30;8.90;83.50
18365;DHT22;9309;52.126;11.616;2022-12-29T04:10:57;9.00;83.50
18365;DHT22;9309;52.126;11.616;2022-12-29T04:13:24;9.00;83.70
18365;DHT22;9309;52.126;11.616;2022-12-29T04:15:50;9.20;83.00
18365;DHT22;9309;52.126;11.616;2022-12-29T04:18:17;9.30;82.60
18365;DHT22;9309;52.126;11.616;2022-12-29T04:20:45;9.40;82.50
18365;DHT22;9309;52.126;11.616;2022-12-29T04:23:32;9.40;82.20
18365;DHT22;9309;52.126;11.616;2022-12-29T04:25:59;9.50;81.90
18365;DHT22;9309;52.126;11.616;2022-12-29T04:28:27;9.50;81.70
18365;DHT22;9309;52.126;11.616;2022-12-29T04:31:12;9.60;81.50
18365;DHT22;9309;52.126;11.616;2022-12-29T04:33:41;9.50;81.50
18365;DHT22;9309;52.126;11.616;2022-12-29T04:36:08;9.50;81.70
18365;DHT22;9309;52.126;11.616;2022-12-29T04:38:38;9.50;81.70
18365;DHT22;9309;52.126;11.616;2022-12-29T04:41:05;9.40;81.70
18365;DHT22;9309;52.126;11.616;2022-12-29T04:43:33;9.50;81.60
18365;DHT22;9309;52.126;11.616;2022-12-29T04:46:18;9.40;81.80
18365;DHT22;9309;52.126;11.616;2022-12-29T04:48:57;9.30;82.00
18365;DHT22;9309;52.126;11.616;2022-12-29T04:51:44;9.30;82.20
18365;DHT22;9309;52.126;11.616;2022-12-29T04:54:14;9.20;82.40
18365;DHT22;9309;52.126;11.616;2022-12-29T04:56:43;9.20;82.50
18365;DHT22;9309;52.126;11.616;2022-12-29T04:59:12;9.10;82.90
18365;DHT22;9309;52.126;11.616;2022-12-29T05:01:41;9.10;82.80
18365;DHT22;9309;52.126;11.616;2022-12-29T05:04:09;9.20;82.60
18365;DHT22;9309;52.126;11.616;2022-12-29T05:06:36;9.10;82.80
18365;DHT22;9309;52.126;11.616;2022-12-29T05:09:03;9.10;82.70
18365;DHT22;9309;52.126;11.616;2022-12-29T05:11:32;9.00;83.20
18365;DHT22;9309;52.126;11.616;2022-12-29T05:14:00;8.90;83.30
18365;DHT22;9309;52.126;11.616;2022-12-29T05:16:27;8.80;83.80
18365;DHT22;9309;52.126;11.616;2022-12-29T05:18:53;8.80;84.10
18365;DHT22;9309;52.126;11.616;2022-12-29T05:21:20;8.80;84.10
18365;DHT22;9309;52.126;11.616;2022-12-29T05:23:47;8.80;84.00
18365;DHT22;9309;52.126;11.616;2022-12-29T05:26:14;8.80;84.10
18365;DHT22;9309;52.126;11.616;2022-12-29T05:28:56;8.90;83.90
18365;DHT22;9309;52.126;11.616;2022-12-29T05:31:23;8.90;83.60
18365;DHT22;9309;52.126;11.616;2022-12-29T05:33:50;9.00;83.40
18365;DHT22;9309;52.126;11.616;2022-12-29T05:36:17;9.00;83.30
18365;DHT22;9309;52.126;11.616;2022-12-29T05:38:47;9.00;83.20
18365;DHT22;9309;52.126;11.616;2022-12-29T05:41:14;9.00;83.60
18365;DHT22;9309;52.126;11.616;2022-12-29T05:44:03;8.90;83.60
18365;DHT22;9309;52.126;11.616;2022-12-29T05:46:45;9.00;83.50
18365;DHT22;9309;52.126;11.616;2022-12-29T05:49:19;9.10;83.20
18365;DHT22;9309;52.126;11.616;2022-12-29T05:51:56;9.10;82.90
18365;DHT22;9309;52.126;11.616;2022-12-29T05:54:23;9.10;83.30
18365;DHT22;9309;52.126;11.616;2022-12-29T05:56:50;9.10;83.50
18365;DHT22;9309;52.126;11.616;2022-12-29T05:59:18;9.10;83.20
18365;DHT22;9309;52.126;11.616;2022-12-29T06:01:46;9.10;83.10
18365;DHT22;9309;52.126;11.616;2022-12-29T06:04:12;9.20;83.10
18365;DHT22;9309;52.126;11.616;2022-12-29T06:06:40;9.10;83.20
18365;DHT22;9309;52.126;11.616;2022-12-29T06:09:12;9.20;83.00
18365;DHT22;9309;52.126;11.616;2022-12-29T06:11:39;9.20;83.10
18365;DHT22;9309;52.126;11.616;2022-12-29T06:14:05;9.20;83.20
18365;DHT22;9309;52.126;11.616;2022-12-29T06:16:34;9.10;83.20
18365;DHT22;9309;52.126;11.616;2022-12-29T06:19:04;9.10;83.50
18365;DHT22;9309;52.126;11.616;2022-12-29T06:21:31;9.10;83.50
18365;DHT22;9309;52.126;11.616;2022-12-29T06:23:59;9.10;83.50
18365;DHT22;9309;52.126;11.616;2022-12-29T06:26:26;9.10;83.70
18365;DHT22;9309;52.126;11.616;2022-12-29T06:28:53;9.00;83.90
18365;DHT22;9309;52.126;11.616;2022-12-29T06:31:19;8.90;84.30
18365;DHT22;9309;52.126;11.616;2022-12-29T06:33:49;9.00;84.40
18365;DHT22;9309;52.126;11.616;2022-12-29T06:36:15;9.00;84.40
18365;DHT22;9309;52.126;11.616;2022-12-29T06:38:43;9.00;84.50
18365;DHT22;9309;52.126;11.616;2022-12-29T06:41:09;8.90;84.90
18365;DHT22;9309;52.126;11.616;2022-12-29T06:43:36;9.00;84.90
18365;DHT22;9309;52.126;11.616;2022-12-29T06:46:23;9.00;84.90
18365;DHT22;9309;52.126;11.616;2022-12-29T06:48:51;9.00;84.90
18365;DHT22;9309;52.126;11.616;2022-12-29T06:51:18;9.00;84.80
18365;DHT22;9309;52.126;11.616;2022-12-29T06:53:44;9.00;85.10
18365;DHT22;9309;52.126;11.616;2022-12-29T06:56:11;9.00;85.20
18365;DHT22;9309;52.126;11.616;2022-12-29T06:58:38;9.10;85.00
18365;DHT22;9309;52.126;11.616;2022-12-29T07:01:04;9.20;84.50
18365;DHT22;9309;52.126;11.616;2022-12-29T07:03:31;9.40;83.70
18365;DHT22;9309;52.126;11.616;2022-12-29T07:05:59;9.50;83.50
18365;DHT22;9309;52.126;11.616;2022-12-29T07:08:26;9.60;83.10
18365;DHT22;9309;52.126;11.616;2022-12-29T07:10:52;9.60;83.00
18365;DHT22;9309;52.126;11.616;2022-12-29T07:13:19;9.50;83.20
18365;DHT22;9309;52.126;11.616;2022-12-29T07:15:46;9.60;83.20
18365;DHT22;9309;52.126;11.616;2022-12-29T07:18:12;9.60;83.10
18365;DHT22;9309;52.126;11.616;2022-12-29T07:20:39;9.60;83.10
18365;DHT22;9309;52.126;11.616;2022-12-29T07:23:07;9.60;83.00
18365;DHT22;9309;52.126;11.616;2022-12-29T07:25:34;9.60;82.80
18365;DHT22;9309;52.126;11.616;2022-12-29T07:28:01;9.60;82.80
18365;DHT22;9309;52.126;11.616;2022-12-29T07:30:28;9.60;82.80
18365;DHT22;9309;52.126;11.616;2022-12-29T07:32:54;9.60;82.70
18365;DHT22;9309;52.126;11.616;2022-12-29T07:35:21;9.60;82.70
18365;DHT22;9309;52.126;11.616;2022-12-29T07:37:48;9.60;82.90
18365;DHT22;9309;52.126;11.616;2022-12-29T07:40:16;9.60;83.10
18365;DHT22;9309;52.126;11.616;2022-12-29T07:42:42;9.60;83.20
18365;DHT22;9309;52.126;11.616;2022-12-29T07:45:09;9.60;83.20
18365;DHT22;9309;52.126;11.616;2022-12-29T07:48:02;9.60;83.30
18365;DHT22;9309;52.126;11.616;2022-12-29T07:50:29;9.60;83.30
18365;DHT22;9309;52.126;11.616;2022-12-29T07:52:55;9.50;83.30
18365;DHT22;9309;52.126;11.616;2022-12-29T07:55:23;9.50;83.30
18365;DHT22;9309;52.126;11.616;2022-12-29T07:57:52;9.50;83.60
18365;DHT22;9309;52.126;11.616;2022-12-29T08:00:19;9.50;83.60
18365;DHT22;9309;52.126;11.616;2022-12-29T08:02:46;9.50;83.60
18365;DHT22;9309;52.126;11.616;2022-12-29T08:05:12;9.60;83.50
18365;DHT22;9309;52.126;11.616;2022-12-29T08:07:39;9.60;83.30
18365;DHT22;9309;52.126;11.616;2022-12-29T08:10:06;9.70;83.00
18365;DHT22;9309;52.126;11.616;2022-12-29T08:12:34;9.70;82.60
18365;DHT22;9309;52.126;11.616;2022-12-29T08:15:01;9.80;82.40
18365;DHT22;9309;52.126;11.616;2022-12-29T08:17:28;9.90;81.90
18365;DHT22;9309;52.126;11.616;2022-12-29T08:19:55;10.00;81.50
18365;DHT22;9309;52.126;11.616;2022-12-29T08:22:22;10.10;81.10
18365;DHT22;9309;52.126;11.616;2022-12-29T08:24:49;10.10;80.80
18365;DHT22;9309;52.126;11.616;2022-12-29T08:27:16;10.10;80.60
18365;DHT22;9309;52.126;11.616;2022-12-29T08:29:45;10.20;80.40
18365;DHT22;9309;52.126;11.616;2022-12-29T08:32:12;10.20;80.30
18365;DHT22;9309;52.126;11.616;2022-12-29T08:34:38;10.30;80.10
18365;DHT22;9309;52.126;11.616;2022-12-29T08:37:05;10.40;79.30
18365;DHT22;9309;52.126;11.616;2022-12-29T08:39:32;10.50;78.70
18365;DHT22;9309;52.126;11.616;2022-12-29T08:41:59;10.70;78.00
18365;DHT22;9309;52.126;11.616;2022-12-29T08:44:25;10.90;77.60
18365;DHT22;9309;52.126;11.616;2022-12-29T08:46:53;11.00;76.60
18365;DHT22;9309;52.126;11.616;2022-12-29T08:49:20;11.20;75.80
18365;DHT22;9309;52.126;11.616;2022-12-29T08:51:47;11.50;74.70
18365;DHT22;9309;52.126;11.616;2022-12-29T08:54:13;11.90;73.00
18365;DHT22;9309;52.126;11.616;2022-12-29T08:56:40;12.00;72.50
18365;DHT22;9309;52.126;11.616;2022-12-29T08:59:07;11.90;72.70
18365;DHT22;9309;52.126;11.616;2022-12-29T09:01:34;11.80;73.10
18365;DHT22;9309;52.126;11.616;2022-12-29T09:04:03;12.10;72.90
18365;DHT22;9309;52.126;11.616;2022-12-29T09:06:29;12.20;72.00
18365;DHT22;9309;52.126;11.616;2022-12-29T09:08:56;12.00;72.70
18365;DHT22;9309;52.126;11.616;2022-12-29T09:11:24;11.80;73.50
18365;DHT22;9309;52.126;11.616;2022-12-29T09:13:51;11.70;73.90
18365;DHT22;9309;52.126;11.616;2022-12-29T09:16:20;11.70;74.50
18365;DHT22;9309;52.126;11.616;2022-12-29T09:18:47;11.70;74.50
18365;DHT22;9309;52.126;11.616;2022-12-29T09:21:15;11.60;74.80
18365;DHT22;9309;52.126;11.616;2022-12-29T09:23:49;11.80;74.50
18365;DHT22;9309;52.126;11.616;2022-12-29T09:26:16;11.80;74.30
18365;DHT22;9309;52.126;11.616;2022-12-29T09:28:42;11.90;74.40
18365;DHT22;9309;52.126;11.616;2022-12-29T09:31:10;11.90;74.00
18365;DHT22;9309;52.126;11.616;2022-12-29T09:33:36;11.90;74.10
18365;DHT22;9309;52.126;11.616;2022-12-29T09:36:03;12.00;74.10
18365;DHT22;9309;52.126;11.616;2022-12-29T09:38:31;11.90;74.40
18365;DHT22;9309;52.126;11.616;2022-12-29T09:41:04;11.90;74.20
18365;DHT22;9309;52.126;11.616;2022-12-29T09:43:45;11.90;74.60
18365;DHT22;9309;52.126;11.616;2022-12-29T09:46:23;11.90;74.10
18365;DHT22;9309;52.126;11.616;2022-12-29T09:48:55;11.80;74.50
18365;DHT22;9309;52.126;11.616;2022-12-29T09:51:25;11.80;75.00
18365;DHT22;9309;52.126;11.616;2022-12-29T09:54:00;11.80;75.00
18365;DHT22;9309;52.126;11.616;2022-12-29T09:56:28;11.80;75.10
18365;DHT22;9309;52.126;11.616;2022-12-29T09:58:59;11.80;74.90
18365;DHT22;9309;52.126;11.616;2022-12-29T10:01:33;11.80;74.40
18365;DHT22;9309;52.126;11.616;2022-12-29T10:04:02;11.80;73.70
18365;DHT22;9309;52.126;11.616;2022-12-29T10:06:37;11.90;72.60
18365;DHT22;9309;52.126;11.616;2022-12-29T10:09:13;11.80;73.60
18365;DHT22;9309;52.126;11.616;2022-12-29T10:11:55;11.80;74.80
18365;DHT22;9309;52.126;11.616;2022-12-29T10:14:36;11.60;76.60
18365;DHT22;9309;52.126;11.616;2022-12-29T10:17:19;11.30;78.80
18365;DHT22;9309;52.126;11.616;2022-12-29T10:20:07;11.10;79.00
18365;DHT22;9309;52.126;11.616;2022-12-29T10:22:47;10.90;81.00
18365;DHT22;9309;52.126;11.616;2022-12-29T10:25:22;10.80;82.80
18365;DHT22;9309;52.126;11.616;2022-12-29T10:27:50;10.50;85.10
18365;DHT22;9309;52.126;11.616;2022-12-29T10:30:18;10.30;85.40
18365;DHT22;9309;52.126;11.616;2022-12-29T10:32:47;10.10;85.30
18365;DHT22;9309;52.126;11.616;2022-12-29T10:35:19;10.10;85.30
18365;DHT22;9309;52.126;11.616;2022-12-29T10:37:52;9.90;85.50
18365;DHT22;9309;52.126;11.616;2022-12-29T10:40:25;9.80;85.20
18365;DHT22;9309;52.126;11.616;2022-12-29T10:42:55;9.80;85.60
18365;DHT22;9309;52.126;11.616;2022-12-29T10:45:25;9.80;84.70
18365;DHT22;9309;52.126;11.616;2022-12-29T10:47:55;9.70;85.30
18365;DHT22;9309;52.126;11.616;2022-12-29T10:50:24;9.70;84.50
18365;DHT22;9309;52.126;11.616;2022-12-29T10:52:52;9.70;85.70
18365;DHT22;9309;52.126;11.616;2022-12-29T10:55:24;9.60;86.50
18365;DHT22;9309;52.126;11.616;2022-12-29T10:57:53;9.50;87.50
18365;DHT22;9309;52.126;11.616;2022-12-29T11:00:23;9.40;87.70
18365;DHT22;9309;52.126;11.616;2022-12-29T11:03:07;9.40;87.80
18365;DHT22;9309;52.126;11.616;2022-12-29T11:05:41;9.30;87.70
18365;DHT22;9309;52.126;11.616;2022-12-29T11:08:12;9.30;87.80
18365;DHT22;9309;52.126;11.616;2022-12-29T11:10:44;9.30;86.90
18365;DHT22;9309;52.126;11.616;2022-12-29T11:13:13;9.30;86.70
18365;DHT22;9309;52.126;11.616;2022-12-29T11:15:42;9.50;85.90
18365;DHT22;9309;52.126;11.616;2022-12-29T11:18:21;9.50;84.80
18365;DHT22;9309;52.126;11.616;2022-12-29T11:20:49;9.60;83.10
18365;DHT22;9309;52.126;11.616;2022-12-29T11:23:33;9.70;82.60
18365;DHT22;9309;52.126;11.616;2022-12-29T11:26:14;9.70;81.70
18365;DHT22;9309;52.126;11.616;2022-12-29T11:28:43;9.70;81.70
18365;DHT22;9309;52.126;11.616;2022-12-29T11:31:11;9.80;81.90
18365;DHT22;9309;52.126;11.616;2022-12-29T11:33:41;9.80;80.80
18365;DHT22;9309;52.126;11.616;2022-12-29T11:36:11;9.90;80.20
18365;DHT22;9309;52.126;11.616;2022-12-29T11:38:42;10.00;79.80
18365;DHT22;9309;52.126;11.616;2022-12-29T11:41:18;10.00;79.40
18365;DHT22;9309;52.126;11.616;2022-12-29T11:43:45;10.10;79.20
18365;DHT22;9309;52.126;11.616;2022-12-29T11:46:16;10.20;78.90
18365;DHT22;9309;52.126;11.616;2022-12-29T11:48:43;10.20;78.80
18365;DHT22;9309;52.126;11.616;2022-12-29T11:51:11;10.40;78.20
18365;DHT22;9309;52.126;11.616;2022-12-29T11:53:39;10.40;78.00
18365;DHT22;9309;52.126;11.616;2022-12-29T11:56:10;10.40;78.00
18365;DHT22;9309;52.126;11.616;2022-12-29T11:58:40;10.50;77.80
18365;DHT22;9309;52.126;11.616;2022-12-29T12:01:11;10.70;77.20
18365;DHT22;9309;52.126;11.616;2022-12-29T12:03:45;10.80;76.90
18365;DHT22;9309;52.126;11.616;2022-12-29T12:06:16;10.80;76.60
18365;DHT22;9309;52.126;11.616;2022-12-29T12:08:49;11.00;76.70
18365;DHT22;9309;52.126;11.616;2022-12-29T12:11:20;11.20;75.70
18365;DHT22;9309;52.126;11.616;2022-12-29T12:13:57;11.30;75.50
18365;DHT22;9309;52.126;11.616;2022-12-29T12:16:33;11.40;75.50
18365;DHT22;9309;52.126;11.616;2022-12-29T12:19:04;11.50;75.60
18365;DHT22;9309;52.126;11.616;2022-12-29T12:21:38;11.70;73.90
18365;DHT22;9309;52.126;11.616;2022-12-29T12:24:23;11.60;74.60
18365;DHT22;9309;52.126;11.616;2022-12-29T12:26:59;11.60;74.60
18365;DHT22;9309;52.126;11.616;2022-12-29T12:29:35;11.60;74.60
18365;DHT22;9309;52.126;11.616;2022-12-29T12:32:11;11.70;74.30
18365;DHT22;9309;52.126;11.616;2022-12-29T12:34:42;11.70;74.60
18365;DHT22;9309;52.126;11.616;2022-12-29T12:37:38;11.70;75.10
18365;DHT22;9309;52.126;11.616;2022-12-29T12:40:35;11.50;75.90
18365;DHT22;9309;52.126;11.616;2022-12-29T12:43:23;11.50;76.00
18365;DHT22;9309;52.126;11.616;2022-12-29T12:46:02;11.50;76.40
18365;DHT22;9309;52.126;11.616;2022-12-29T12:48:46;11.70;75.70
18365;DHT22;9309;52.126;11.616;2022-12-29T12:51:25;11.70;75.30
18365;DHT22;9309;52.126;11.616;2022-12-29T12:54:06;11.80;74.30
18365;DHT22;9309;52.126;11.616;2022-12-29T12:56:47;11.80;73.70
18365;DHT22;9309;52.126;11.616;2022-12-29T12:59:26;11.70;73.90
18365;DHT22;9309;52.126;11.616;2022-12-29T13:02:02;11.60;73.70
18365;DHT22;9309;52.126;11.616;2022-12-29T13:04:49;11.60;73.80
18365;DHT22;9309;52.126;11.616;2022-12-29T13:07:25;11.60;72.90
18365;DHT22;9309;52.126;11.616;2022-12-29T13:10:07;11.70;72.10
18365;DHT22;9309;52.126;11.616;2022-12-29T13:12:48;11.80;70.80
18365;DHT22;9309;52.126;11.616;2022-12-29T13:15:26;11.80;68.40
18365;DHT22;9309;52.126;11.616;2022-12-29T13:18:03;11.90;66.90
18365;DHT22;9309;52.126;11.616;2022-12-29T13:20:34;12.00;66.50
18365;DHT22;9309;52.126;11.616;2022-12-29T13:23:12;12.00;66.40
18365;DHT22;9309;52.126;11.616;2022-12-29T13:25:46;12.00;67.10
18365;DHT22;9309;52.126;11.616;2022-12-29T13:28:20;12.00;66.70
18365;DHT22;9309;52.126;11.616;2022-12-29T13:30:56;12.00;67.10
18365;DHT22;9309;52.126;11.616;2022-12-29T13:33:31;11.90;67.20
18365;DHT22;9309;52.126;11.616;2022-12-29T13:36:03;11.90;67.30
18365;DHT22;9309;52.126;11.616;2022-12-29T13:38:34;11.80;67.80
18365;DHT22;9309;52.126;11.616;2022-12-29T13:41:05;11.50;69.60
18365;DHT22;9309;52.126;11.616;2022-12-29T13:43:37;11.20;71.50
18365;DHT22;9309;52.126;11.616;2022-12-29T13:46:07;10.90;71.80
18365;DHT22;9309;52.126;11.616;2022-12-29T13:48:41;10.80;71.60
18365;DHT22;9309;52.126;11.616;2022-12-29T13:51:10;10.80;72.10
18365;DHT22;9309;52.126;11.616;2022-12-29T13:53:47;10.90;70.00
18365;DHT22;9309;52.126;11.616;2022-12-29T13:56:21;11.00;70.20
18365;DHT22;9309;52.126;11.616;2022-12-29T13:58:54;11.00;69.40
18365;DHT22;9309;52.126;11.616;2022-12-29T14:01:23;11.00;69.10
18365;DHT22;9309;52.126;11.616;2022-12-29T14:03:56;11.20;68.10
18365;DHT22;9309;52.126;11.616;2022-12-29T14:06:25;11.20;67.70
18365;DHT22;9309;52.126;11.616;2022-12-29T14:08:54;11.20;68.10
18365;DHT22;9309;52.126;11.616;2022-12-29T14:11:25;11.30;67.30
18365;DHT22;9309;52.126;11.616;2022-12-29T14:13:55;11.40;67.00
18365;DHT22;9309;52.126;11.616;2022-12-29T14:16:30;11.40;67.30
18365;DHT22;9309;52.126;11.616;2022-12-29T14:19:09;11.30;67.70
18365;DHT22;9309;52.126;11.616;2022-12-29T14:21:37;11.30;68.20
18365;DHT22;9309;52.126;11.616;2022-12-29T14:24:38;11.20;68.20
18365;DHT22;9309;52.126;11.616;2022-12-29T14:33:13;11.30;66.60
18365;DHT22;9309;52.126;11.616;2022-12-29T14:35:43;11.30;66.10
18365;DHT22;9309;52.126;11.616;2022-12-29T14:38:21;11.40;65.90
18365;DHT22;9309;52.126;11.616;2022-12-29T14:40:49;11.30;65.60
18365;DHT22;9309;52.126;11.616;2022-12-29T14:43:22;11.30;66.00
18365;DHT22;9309;52.126;11.616;2022-12-29T14:45:57;11.20;66.10
18365;DHT22;9309;52.126;11.616;2022-12-29T14:48:37;11.30;65.80
18365;DHT22;9309;52.126;11.616;2022-12-29T14:51:33;11.30;66.00
18365;DHT22;9309;52.126;11.616;2022-12-29T14:54:40;11.20;66.00
18365;DHT22;9309;52.126;11.616;2022-12-29T14:57:14;11.20;65.80
18365;DHT22;9309;52.126;11.616;2022-12-29T14:59:42;11.20;66.10
18365;DHT22;9309;52.126;11.616;2022-12-29T15:02:15;11.10;66.30
18365;DHT22;9309;52.126;11.616;2022-12-29T15:04:42;11.20;66.10
18365;DHT22;9309;52.126;11.616;2022-12-29T15:07:10;11.30;65.20
18365;DHT22;9309;52.126;11.616;2022-12-29T15:09:42;11.30;65.20
18365;DHT22;9309;52.126;11.616;2022-12-29T15:12:20;11.20;65.70
18365;DHT22;9309;52.126;11.616;2022-12-29T15:14:49;11.10;66.60
18365;DHT22;9309;52.126;11.616;2022-12-29T15:17:24;10.90;67.20
18365;DHT22;9309;52.126;11.616;2022-12-29T15:19:51;10.90;67.70
18365;DHT22;9309;52.126;11.616;2022-12-29T15:22:19;10.90;68.10
18365;DHT22;9309;52.126;11.616;2022-12-29T15:24:54;10.90;67.30
18365;DHT22;9309;52.126;11.616;2022-12-29T15:27:23;11.00;66.70
18365;DHT22;9309;52.126;11.616;2022-12-29T15:29:57;11.00;66.60
18365;DHT22;9309;52.126;11.616;2022-12-29T15:32:25;11.00;66.90
18365;DHT22;9309;52.126;11.616;2022-12-29T15:34:54;11.00;66.40
18365;DHT22;9309;52.126;11.616;2022-12-29T15:37:23;11.00;66.80
18365;DHT22;9309;52.126;11.616;2022-12-29T15:39:55;11.00;66.40
18365;DHT22;9309;52.126;11.616;2022-12-29T15:42:30;11.10;66.40
18365;DHT22;9309;52.126;11.616;2022-12-29T15:45:03;11.10;66.40
18365;DHT22;9309;52.126;11.616;2022-12-29T15:47:31;10.80;67.60
18365;DHT22;9309;52.126;11.616;2022-12-29T15:50:02;10.90;67.10
18365;DHT22;9309;52.126;11.616;2022-12-29T15:52:31;10.70;67.20
18365;DHT22;9309;52.126;11.616;2022-12-29T15:55:00;10.70;68.10
18365;DHT22;9309;52.126;11.616;2022-12-29T15:57:30;10.70;68.40
18365;DHT22;9309;52.126;11.616;2022-12-29T15:59:57;10.80;68.10
18365;DHT22;9309;52.126;11.616;2022-12-29T16:02:25;10.90;68.00
18365;DHT22;9309;52.126;11.616;2022-12-29T16:04:52;10.80;68.20
18365;DHT22;9309;52.126;11.616;2022-12-29T16:07:25;10.70;69.10
18365;DHT22;9309;52.126;11.616;2022-12-29T16:09:57;10.70;69.20
18365;DHT22;9309;52.126;11.616;2022-12-29T16:12:30;10.60;69.80
18365;DHT22;9309;52.126;11.616;2022-12-29T16:14:59;10.70;69.80
18365;DHT22;9309;52.126;11.616;2022-12-29T16:17:28;10.50;70.20
18365;DHT22;9309;52.126;11.616;2022-12-29T16:19:58;10.40;70.70